Time;durP1;ratioP1;P1;durP2;ratioP2;P2;SDS_P1;SDS_P2;PMS_P1;PMS_P2;Temp;Humidity;BMP_temperature;BMP_pressure;BME280_temperature;BME280_humidity;BME280_pressure;Samples;Min_cycle;Max_cycle;Signal;HPM_P1;HPM_P2
2023/08/27 00:02:03;;;;;;;5.63;1.90;;;14.30;99.90;;;15.30;100.00;97623.44;5072280;28;21058;-77
2023/08/27 00:04:34;;;;;;;3.00;1.60;;;14.30;99.90;;;15.27;100.00;97633.63;5073347;28;20526;-77
2023/08/27 00:07:04;;;;;;;1.40;1.30;;;14.20;99.90;;;15.29;100.00;97634.22;5075472;28;20537;-77
2023/08/27 00:09:34;;;;;;;6.70;1.53;;;14.10;99.90;;;15.31;100.00;97621.59;5075980;28;20463;-78
2023/08/27 00:12:05;;;;;;;1.53;1.30;;;14.20;99.90;;;15.28;100.00;97609.69;5076815;28;20500;-77
2023/08/27 00:14:34;;;;;;;1.60;1.20;;;14.20;99.90;;;15.21;100.00;97621.34;5072276;28;20451;-78
2023/08/27 00:17:05;;;;;;;2.10;1.40;;;14.30;99.90;;;15.18;100.00;97635.78;5076117;28;20456;-77
2023/08/27 00:19:34;;;;;;;2.03;1.37;;;14.20;99.90;;;15.14;100.00;97645.16;5075622;28;20461;-78
2023/08/27 00:22:05;;;;;;;3.67;1.80;;;14.20;99.90;;;15.17;100.00;97636.81;5077049;28;21054;-77
2023/08/27 00:24:36;;;;;;;5.37;1.83;;;14.10;99.90;;;15.24;100.00;97637.50;5074156;28;20570;-78
2023/08/27 00:27:06;;;;;;;10.53;1.77;;;14.10;99.90;;;15.25;100.00;97643.59;5070027;28;21040;-76
2023/08/27 00:29:36;;;;;;;1.80;1.40;;;14.10;99.90;;;15.16;100.00;97648.41;5074263;28;21008;-77
2023/08/27 00:32:06;;;;;;;2.10;1.70;;;14.10;99.90;;;15.11;100.00;97654.31;5075588;28;20463;-77
2023/08/27 00:34:53;;;;;;;5.43;1.40;;;14.20;99.90;;;15.17;100.00;97662.38;5074253;28;20470;-77
2023/08/27 00:37:23;;;;;;;2.87;1.60;;;14.20;99.90;;;15.13;100.00;97667.28;5072470;28;20507;-78
2023/08/27 00:39:54;;;;;;;1.50;1.27;;;14.30;99.90;;;15.16;100.00;97663.38;5076420;28;20974;-79
2023/08/27 00:42:23;;;;;;;3.53;1.10;;;14.30;99.90;;;15.20;100.00;97667.19;5076136;28;20480;-77
2023/08/27 00:44:52;;;;;;;1.17;1.07;;;14.20;99.90;;;15.21;100.00;97659.03;5074715;28;20499;-78
2023/08/27 00:47:22;;;;;;;1.53;1.20;;;14.20;99.90;;;15.22;100.00;97652.75;5075199;28;20473;-78
2023/08/27 00:49:51;;;;;;;1.77;1.33;;;14.30;99.90;;;15.23;100.00;97651.72;5076328;28;20830;-77
2023/08/27 00:52:22;;;;;;;3.53;1.23;;;14.10;99.90;;;15.16;100.00;97651.03;5074982;28;20982;-78
2023/08/27 00:54:56;;;;;;;2.73;1.50;;;14.30;99.90;;;15.17;100.00;97654.47;5075185;28;20460;-78
2023/08/27 00:57:27;;;;;;;5.73;1.60;;;14.30;99.90;;;15.00;100.00;97654.28;5074131;28;20459;-77
2023/08/27 00:59:59;;;;;;;2.50;1.30;;;14.40;99.90;;;15.08;100.00;97643.44;5074622;28;20484;-78
2023/08/27 01:02:29;;;;;;;3.93;1.20;;;14.30;99.90;;;15.12;100.00;97639.31;5073411;28;20476;-78
2023/08/27 01:04:59;;;;;;;1.40;1.30;;;14.10;99.90;;;15.11;100.00;97642.97;5074702;28;21131;-78
2023/08/27 01:07:42;;;;;;;3.90;1.40;;;14.30;99.90;;;15.13;100.00;97625.91;5075939;28;20551;-78
2023/08/27 01:10:27;;;;;;;2.33;1.30;;;14.20;99.90;;;15.13;100.00;97621.69;5074183;28;20970;-78
2023/08/27 01:13:04;;;;;;;3.53;1.83;;;14.20;99.90;;;15.06;100.00;97625.22;5072792;28;20593;-78
2023/08/27 01:15:35;;;;;;;3.57;1.20;;;14.20;99.90;;;15.03;100.00;97630.94;5074768;28;20502;-77
2023/08/27 01:18:07;;;;;;;7.63;1.50;;;14.20;99.90;;;15.06;100.00;97619.16;5073467;28;20812;-78
2023/08/27 01:20:37;;;;;;;2.03;1.30;;;14.10;99.90;;;15.09;100.00;97608.19;5074779;28;20474;-78
2023/08/27 01:23:09;;;;;;;1.47;1.17;;;14.10;99.90;;;15.10;100.00;97613.19;5071599;28;20467;-77
2023/08/27 01:25:46;;;;;;;1.30;1.20;;;14.00;99.90;;;15.10;100.00;97607.94;5075620;28;20499;-78
2023/08/27 01:28:27;;;;;;;2.03;1.33;;;14.00;99.90;;;15.14;100.00;97616.19;5074313;28;20467;-78
2023/08/27 01:31:04;;;;;;;2.07;1.20;;;14.10;99.90;;;15.11;100.00;97595.56;5071494;28;20521;-78
2023/08/27 01:33:35;;;;;;;3.20;1.20;;;14.10;99.90;;;15.11;100.00;97592.94;5077592;28;20476;-78
2023/08/27 01:36:05;;;;;;;6.50;1.37;;;14.10;99.90;;;15.08;100.00;97588.94;5074506;28;20468;-78
2023/08/27 01:38:38;;;;;;;5.70;1.37;;;14.10;99.90;;;15.08;100.00;97580.22;5073098;28;20458;-78
2023/08/27 01:41:08;;;;;;;4.70;1.10;;;14.10;99.90;;;15.07;100.00;97576.78;5077244;28;20990;-78
2023/08/27 01:43:39;;;;;;;6.10;1.33;;;14.00;99.90;;;15.07;100.00;97573.34;5079768;28;20464;-77
2023/08/27 01:46:09;;;;;;;9.10;1.20;;;13.90;99.90;;;15.03;100.00;97575.63;5079513;28;20502;-78
2023/08/27 01:48:39;;;;;;;4.00;1.60;;;14.00;99.90;;;14.98;100.00;97580.78;5081700;28;20468;-78
2023/08/27 01:51:09;;;;;;;2.47;1.30;;;14.20;99.90;;;14.98;100.00;97580.00;5079162;28;20452;-78
2023/08/27 01:53:40;;;;;;;1.83;1.30;;;14.10;99.90;;;14.86;100.00;97597.56;5076611;28;20466;-78
2023/08/27 01:56:11;;;;;;;1.93;1.33;;;14.00;99.90;;;14.85;100.00;97596.00;5077363;28;20456;-79
2023/08/27 01:58:41;;;;;;;2.77;1.13;;;14.00;99.90;;;14.88;100.00;97600.81;5080792;28;20834;-78
2023/08/27 02:01:11;;;;;;;5.50;1.53;;;13.90;99.90;;;14.95;100.00;97596.25;5074237;28;20893;-77
2023/08/27 02:03:42;;;;;;;3.90;1.10;;;13.90;99.90;;;14.93;100.00;97582.47;5078276;28;20960;-77
2023/08/27 02:06:12;;;;;;;2.60;1.27;;;13.90;99.90;;;14.97;100.00;97570.47;5078195;28;20485;-78
2023/08/27 02:08:43;;;;;;;3.33;1.47;;;13.90;99.90;;;14.96;100.00;97564.41;5079873;28;20471;-78
2023/08/27 02:11:12;;;;;;;2.43;1.20;;;13.90;99.90;;;14.93;100.00;97561.41;5080980;28;20463;-77
2023/08/27 02:13:42;;;;;;;1.33;1.20;;;13.80;99.90;;;14.88;100.00;97556.03;5079650;28;20464;-78
2023/08/27 02:16:12;;;;;;;2.80;1.47;;;13.80;99.90;;;14.87;100.00;97560.50;5078107;28;20471;-78
2023/08/27 02:18:41;;;;;;;2.00;1.50;;;13.80;99.90;;;14.84;100.00;97562.78;5077809;28;20488;-78
2023/08/27 02:21:10;;;;;;;2.33;1.27;;;13.90;99.90;;;14.79;100.00;97570.53;5078940;28;20494;-77
2023/08/27 02:23:42;;;;;;;1.50;1.00;;;13.80;99.90;;;14.77;100.00;97569.97;5077730;28;20463;-78
2023/08/27 02:26:11;;;;;;;1.33;1.23;;;13.80;99.90;;;14.83;100.00;97572.50;5078321;28;20586;-77
2023/08/27 02:28:41;;;;;;;4.07;1.57;;;13.80;99.90;;;14.89;100.00;97573.47;5078360;28;20460;-77
2023/08/27 02:31:11;;;;;;;1.97;1.23;;;13.80;99.90;;;14.87;100.00;97576.31;5078051;28;20513;-77
2023/08/27 02:33:42;;;;;;;5.13;1.43;;;13.80;99.90;;;14.90;100.00;97577.66;5075928;28;20896;-77
2023/08/27 02:36:13;;;;;;;3.10;1.43;;;13.80;99.90;;;14.93;100.00;97580.66;5077948;28;20823;-78
2023/08/27 02:38:45;;;;;;;11.03;1.50;;;13.80;99.90;;;14.95;100.00;97590.97;5075635;28;20470;-78
2023/08/27 02:41:14;;;;;;;2.60;1.30;;;13.80;99.90;;;14.89;100.00;97591.88;5075922;28;20490;-77
2023/08/27 02:43:43;;;;;;;3.80;1.37;;;13.70;99.90;;;14.88;100.00;97591.06;5078871;28;20490;-78
2023/08/27 02:46:13;;;;;;;1.43;1.20;;;13.80;99.90;;;14.85;100.00;97594.16;5079705;28;20495;-78
2023/08/27 02:48:43;;;;;;;1.53;1.20;;;13.80;99.90;;;14.81;100.00;97594.81;5076575;28;20827;-77
2023/08/27 02:51:13;;;;;;;3.27;1.40;;;13.70;99.90;;;14.77;100.00;97597.09;5077314;28;20452;-78
2023/08/27 02:53:45;;;;;;;1.20;1.10;;;13.80;99.90;;;14.76;100.00;97598.13;5077253;28;21012;-77
2023/08/27 02:56:14;;;;;;;3.50;1.23;;;13.80;99.90;;;14.78;100.00;97590.81;5079356;28;20533;-77
2023/08/27 02:58:45;;;;;;;5.33;1.17;;;13.80;99.90;;;14.83;100.00;97584.88;5078083;28;20829;-77
2023/08/27 03:01:20;;;;;;;1.90;1.27;;;13.90;99.90;;;14.76;100.00;97581.53;5078475;28;20464;-77
2023/08/27 03:03:51;;;;;;;1.60;1.30;;;13.90;99.90;;;14.73;100.00;97576.72;5076236;28;20468;-77
2023/08/27 03:06:21;;;;;;;1.87;1.20;;;13.80;99.90;;;14.75;100.00;97566.78;5076908;28;20519;-77
2023/08/27 03:08:53;;;;;;;6.50;1.73;;;13.80;99.90;;;14.76;100.00;97560.47;5075850;28;20452;-77
2023/08/27 03:11:22;;;;;;;1.67;1.43;;;13.80;99.90;;;14.74;100.00;97554.63;5077823;28;21132;-78
2023/08/27 03:13:52;;;;;;;1.43;1.17;;;13.80;99.90;;;14.69;100.00;97554.50;5076581;28;20551;-79
2023/08/27 03:16:22;;;;;;;3.43;1.40;;;13.70;99.90;;;14.70;100.00;97546.38;5077975;28;20484;-78
2023/08/27 03:18:52;;;;;;;1.90;1.30;;;13.70;99.90;;;14.65;100.00;97550.72;5076082;28;20859;-77
2023/08/27 03:21:21;;;;;;;7.30;1.80;;;13.60;99.90;;;14.68;100.00;97553.72;5074143;28;20958;-77
2023/08/27 03:23:52;;;;;;;1.57;1.33;;;13.70;99.90;;;14.68;100.00;97547.66;5075362;28;20471;-77
2023/08/27 03:26:21;;;;;;;3.00;1.60;;;13.60;99.90;;;14.66;100.00;97550.50;5076636;28;20986;-77
2023/08/27 03:28:52;;;;;;;2.63;1.13;;;13.60;99.90;;;14.65;100.00;97553.38;5077378;28;20460;-77
2023/08/27 03:31:22;;;;;;;1.43;1.03;;;13.70;99.90;;;14.65;100.00;97548.88;5075849;28;20460;-78
2023/08/27 03:33:51;;;;;;;3.40;1.40;;;13.60;99.90;;;14.70;100.00;97550.84;5075483;28;20483;-77
2023/08/27 03:36:20;;;;;;;1.33;1.20;;;13.60;99.90;;;14.70;100.00;97561.38;5076273;28;20451;-77
2023/08/27 03:38:51;;;;;;;4.13;1.60;;;13.60;99.90;;;14.66;100.00;97557.59;5075835;28;20569;-77
2023/08/27 03:41:22;;;;;;;1.60;1.20;;;13.70;99.90;;;14.69;100.00;97549.22;5077167;28;21078;-78
2023/08/27 03:43:53;;;;;;;3.93;1.40;;;13.70;99.90;;;14.69;100.00;97543.97;5078611;28;20461;-78
2023/08/27 03:46:24;;;;;;;2.07;1.30;;;13.70;99.90;;;14.65;100.00;97553.38;5076109;28;20492;-77
2023/08/27 03:48:54;;;;;;;1.50;1.17;;;13.70;99.90;;;14.62;100.00;97554.59;5076904;28;20609;-78
2023/08/27 03:51:24;;;;;;;2.40;1.50;;;13.60;99.90;;;14.65;100.00;97540.22;5075140;28;20474;-77
2023/08/27 03:53:56;;;;;;;9.83;2.07;;;13.50;99.90;;;14.66;100.00;97531.25;5074867;28;20552;-77
2023/08/27 03:56:26;;;;;;;2.50;1.23;;;13.60;99.90;;;14.57;100.00;97530.81;5073900;28;20467;-78
2023/08/27 03:58:57;;;;;;;1.40;1.10;;;13.60;99.90;;;14.54;100.00;97536.50;5075853;28;20505;-77
2023/08/27 04:01:27;;;;;;;3.60;1.20;;;13.70;99.90;;;14.53;100.00;97535.72;5075640;28;20551;-77
2023/08/27 04:03:56;;;;;;;7.73;1.40;;;13.60;99.90;;;14.58;100.00;97527.13;5072624;28;21162;-78
2023/08/27 04:06:27;;;;;;;3.93;1.23;;;13.60;99.90;;;14.56;100.00;97540.53;5076853;28;20492;-78
2023/08/27 04:08:58;;;;;;;5.43;1.43;;;13.60;99.90;;;14.59;100.00;97536.63;5076542;28;20467;-77
2023/08/27 04:11:28;;;;;;;6.63;1.20;;;13.60;99.90;;;14.58;100.00;97527.94;5076448;28;20464;-77
2023/08/27 04:13:58;;;;;;;2.43;1.20;;;13.60;99.90;;;14.59;100.00;97528.72;5075704;28;20456;-78
2023/08/27 04:16:30;;;;;;;6.63;1.80;;;13.60;99.90;;;14.60;100.00;97525.09;5076181;28;20471;-77
2023/08/27 04:19:00;;;;;;;3.10;1.27;;;13.60;99.90;;;14.53;100.00;97533.06;5074949;28;20460;-78
2023/08/27 04:21:30;;;;;;;1.93;1.20;;;13.50;99.90;;;14.53;100.00;97535.72;5077235;28;20464;-77
2023/08/27 04:24:01;;;;;;;1.87;1.20;;;13.40;99.90;;;14.53;100.00;97525.19;5073693;28;20862;-78
2023/08/27 04:26:30;;;;;;;1.57;1.47;;;13.60;99.90;;;14.56;100.00;97524.72;5076148;28;20530;-78
2023/08/27 04:29:00;;;;;;;3.43;1.23;;;13.60;99.90;;;14.52;100.00;97528.84;5075015;28;20495;-78
2023/08/27 04:31:31;;;;;;;1.60;1.33;;;13.60;99.90;;;14.52;100.00;97530.66;5073776;28;20472;-77
2023/08/27 04:34:03;;;;;;;1.30;1.20;;;13.60;99.90;;;14.52;100.00;97528.84;5075499;28;20496;-77
2023/08/27 04:36:33;;;;;;;1.33;1.20;;;13.50;99.90;;;14.52;100.00;97531.47;5076857;28;20557;-77
2023/08/27 04:39:07;;;;;;;1.47;1.20;;;13.60;99.90;;;14.57;100.00;97531.59;5075852;28;20964;-77
2023/08/27 04:41:38;;;;;;;2.43;1.33;;;13.50;99.90;;;14.58;100.00;97533.19;5075444;28;20508;-78
2023/08/27 04:44:07;;;;;;;1.10;1.00;;;13.50;99.90;;;14.61;100.00;97527.47;5076650;28;20468;-77
2023/08/27 04:46:42;;;;;;;3.57;1.30;;;13.60;99.90;;;14.63;100.00;97523.81;5075511;28;20616;-76
2023/08/27 04:49:13;;;;;;;4.63;1.40;;;13.60;99.90;;;14.65;100.00;97532.31;5072704;28;20479;-76
2023/08/27 04:51:43;;;;;;;1.87;1.50;;;13.70;99.90;;;14.65;100.00;97537.56;5075755;28;20559;-78
2023/08/27 04:54:14;;;;;;;1.67;1.23;;;13.70;99.90;;;14.65;100.00;97548.09;5074996;28;22216;-77
2023/08/27 04:56:43;;;;;;;3.03;1.30;;;13.60;99.90;;;14.64;100.00;97554.38;5071004;28;20520;-77
2023/08/27 04:59:14;;;;;;;12.50;1.33;;;13.60;99.90;;;14.61;100.00;97543.25;5074615;28;20460;-78
2023/08/27 05:01:43;;;;;;;1.60;1.30;;;13.80;99.90;;;14.56;100.00;97535.25;5075693;28;20997;-77
2023/08/27 05:04:13;;;;;;;3.73;1.20;;;13.90;99.90;;;14.60;100.00;97525.88;5074094;28;20455;-77
2023/08/27 05:06:42;;;;;;;2.50;1.20;;;13.80;99.90;;;14.59;100.00;97524.28;5076660;28;20528;-77
2023/08/27 05:09:14;;;;;;;1.57;1.27;;;13.80;99.90;;;14.65;100.00;97524.41;5074902;28;20459;-78
2023/08/27 05:11:43;;;;;;;3.77;1.53;;;13.70;99.90;;;14.69;100.00;97522.91;5070390;28;20990;-78
2023/08/27 05:14:12;;;;;;;4.03;1.43;;;13.80;99.90;;;14.69;100.00;97523.72;5068770;28;20459;-80
2023/08/27 05:16:42;;;;;;;4.23;1.37;;;13.80;99.90;;;14.74;100.00;97531.75;5070609;28;20495;-77
2023/08/27 05:19:11;;;;;;;1.70;1.53;;;13.70;99.90;;;14.66;100.00;97518.91;5070416;28;21068;-79
2023/08/27 05:21:41;;;;;;;4.57;1.47;;;13.80;99.90;;;14.66;100.00;97511.00;5071470;28;20460;-78
2023/08/27 05:24:12;;;;;;;4.33;1.70;;;13.90;99.90;;;14.71;100.00;97512.97;5064899;28;20460;-80
2023/08/27 05:26:42;;;;;;;5.43;1.60;;;13.80;99.90;;;14.77;100.00;97522.59;5071648;28;20494;-77
2023/08/27 05:29:12;;;;;;;6.20;1.50;;;13.80;99.90;;;14.80;100.00;97509.78;5070694;28;20460;-77
2023/08/27 05:31:42;;;;;;;3.70;1.60;;;13.80;99.90;;;14.81;100.00;97505.31;5069409;28;20507;-77
2023/08/27 05:34:12;;;;;;;3.70;1.23;;;13.80;99.90;;;14.85;100.00;97517.00;5073278;28;20464;-78
2023/08/27 05:36:43;;;;;;;2.33;1.40;;;13.80;99.90;;;14.86;100.00;97510.69;5071340;28;20468;-78
2023/08/27 05:39:19;;;;;;;1.83;1.13;;;13.90;99.90;;;14.85;100.00;97504.66;5070097;28;20469;-77
2023/08/27 05:41:48;;;;;;;8.10;1.50;;;14.00;99.90;;;14.84;100.00;97502.25;5069068;28;20939;-77
2023/08/27 05:44:19;;;;;;;1.63;1.37;;;14.00;99.90;;;14.86;100.00;97494.91;5068932;28;20467;-77
2023/08/27 05:46:48;;;;;;;3.37;1.60;;;14.00;99.90;;;14.85;100.00;97488.06;5068835;28;20858;-77
2023/08/27 05:49:18;;;;;;;2.43;1.40;;;14.00;99.90;;;14.86;100.00;97484.38;5074882;28;20463;-77
2023/08/27 05:51:47;;;;;;;2.43;1.37;;;13.90;99.90;;;14.89;100.00;97486.56;5071132;28;20476;-81
2023/08/27 05:54:19;;;;;;;11.00;6.20;;;13.90;99.90;;;14.90;100.00;97498.69;5072422;28;20464;-77
2023/08/27 05:56:50;;;;;;;1.20;1.10;;;13.90;99.90;;;14.92;100.00;97491.38;5066732;28;20463;-77
2023/08/27 05:59:19;;;;;;;1.70;1.20;;;14.00;99.90;;;14.89;100.00;97497.88;5074261;28;20463;-77
2023/08/27 06:01:52;;;;;;;2.57;1.33;;;14.00;99.90;;;14.85;100.00;97488.84;5070769;28;20471;-77
2023/08/27 06:04:22;;;;;;;2.20;1.20;;;14.10;99.90;;;14.92;100.00;97494.00;5071584;28;20475;-77
2023/08/27 06:06:53;;;;;;;4.97;1.20;;;14.00;99.90;;;14.95;100.00;97502.25;5070352;28;20484;-77
2023/08/27 06:09:24;;;;;;;2.30;1.30;;;14.00;99.90;;;14.99;100.00;97499.97;5070819;28;20460;-77
2023/08/27 06:11:55;;;;;;;5.47;1.17;;;14.10;99.90;;;15.02;100.00;97499.50;5071198;28;20464;-77
2023/08/27 06:14:25;;;;;;;3.70;1.43;;;14.10;99.90;;;15.02;100.00;97496.88;5069423;28;20460;-77
2023/08/27 06:16:54;;;;;;;2.07;1.30;;;14.10;99.90;;;15.03;100.00;97487.94;5070543;28;20458;-78
2023/08/27 06:19:24;;;;;;;6.70;1.20;;;14.10;99.90;;;15.07;100.00;97489.06;5070180;28;21292;-77
2023/08/27 06:22:07;;;;;;;1.60;1.40;;;14.20;99.90;;;15.13;100.00;97501.34;5069885;28;20471;-81
2023/08/27 06:24:39;;;;;;;1.40;1.10;;;14.20;99.90;;;15.15;100.00;97494.00;5068645;28;20954;-76
2023/08/27 06:27:10;;;;;;;4.70;1.43;;;14.20;99.90;;;15.20;100.00;97494.13;5077424;28;20566;-77
2023/08/27 06:29:41;;;;;;;1.30;1.20;;;14.20;99.90;;;15.25;100.00;97496.88;5075226;28;20464;-77
2023/08/27 06:32:10;;;;;;;7.67;1.30;;;14.30;99.90;;;15.30;100.00;97494.34;5077639;28;20464;-77
2023/08/27 06:34:40;;;;;;;1.60;1.33;;;14.30;99.90;;;15.33;100.00;97487.81;5078081;28;20463;-77
2023/08/27 06:37:10;;;;;;;3.30;1.33;;;14.40;99.90;;;15.36;100.00;97493.44;5076957;28;20589;-77
2023/08/27 06:39:42;;;;;;;3.33;1.40;;;14.40;99.90;;;15.42;100.00;97505.69;5076529;28;20805;-77
2023/08/27 06:42:13;;;;;;;3.40;1.20;;;14.40;99.90;;;15.48;100.00;97510.03;5076810;28;20823;-77
2023/08/27 06:44:42;;;;;;;3.23;1.33;;;14.50;99.90;;;15.49;100.00;97513.50;5076693;28;20468;-77
2023/08/27 06:47:13;;;;;;;3.70;1.40;;;14.50;99.90;;;15.48;100.00;97504.78;5072984;28;20493;-81
2023/08/27 06:49:43;;;;;;;1.40;1.30;;;14.60;99.90;;;15.45;100.00;97497.31;5073532;28;20463;-77
2023/08/27 06:52:12;;;;;;;2.60;1.10;;;14.50;99.90;;;15.51;100.00;97485.09;5073295;28;20783;-77
2023/08/27 06:54:43;;;;;;;5.07;1.77;;;14.60;99.90;;;15.56;100.00;97479.91;5071206;28;20467;-77
2023/08/27 06:57:12;;;;;;;3.07;1.27;;;14.60;99.90;;;15.62;100.00;97481.59;5073607;28;20549;-78
2023/08/27 06:59:41;;;;;;;1.93;1.60;;;14.60;99.90;;;15.67;100.00;97488.81;5072233;28;20471;-77
2023/08/27 07:02:13;;;;;;;1.47;1.20;;;14.80;99.90;;;15.73;100.00;97491.31;5074508;28;20478;-77
2023/08/27 07:04:43;;;;;;;11.43;1.30;;;14.70;99.90;;;15.76;100.00;97495.34;5074090;28;20451;-77
2023/08/27 07:07:13;;;;;;;3.63;2.00;;;14.90;99.90;;;15.78;100.00;97501.97;5073217;28;20625;-79
2023/08/27 07:09:44;;;;;;;1.50;1.10;;;14.90;99.90;;;15.83;100.00;97517.09;5072214;28;20460;-77
2023/08/27 07:12:15;;;;;;;2.00;1.20;;;15.00;99.90;;;15.89;100.00;97534.63;5071515;28;20470;-78
2023/08/27 07:14:45;;;;;;;2.90;1.30;;;15.00;99.90;;;15.97;100.00;97552.72;5071401;28;20467;-78
2023/08/27 07:17:19;;;;;;;2.30;1.30;;;15.10;99.90;;;16.01;100.00;97549.38;5073075;28;20514;-78
2023/08/27 07:19:50;;;;;;;3.30;1.60;;;15.10;99.90;;;16.08;100.00;97544.78;5076087;28;20467;-77
2023/08/27 07:22:21;;;;;;;2.00;1.33;;;15.20;99.90;;;16.15;100.00;97536.72;5071580;28;20463;-77
2023/08/27 07:24:53;;;;;;;1.47;1.23;;;15.20;99.90;;;16.18;100.00;97538.88;5072366;28;20452;-78
2023/08/27 07:27:28;;;;;;;2.57;1.50;;;15.30;99.90;;;16.21;100.00;97521.81;5069410;28;22811;-78
2023/08/27 07:30:00;;;;;;;1.73;1.40;;;15.30;99.90;;;16.25;100.00;97510.53;5072194;28;20470;-77
2023/08/27 07:32:29;;;;;;;1.43;1.20;;;15.30;99.90;;;16.32;100.00;97518.28;5072651;28;20474;-77
2023/08/27 07:34:59;;;;;;;2.27;1.30;;;15.40;99.90;;;16.37;100.00;97519.22;5073120;28;20964;-78
2023/08/27 07:37:31;;;;;;;2.43;1.47;;;15.40;99.90;;;16.43;100.00;97509.53;5071070;28;20459;-77
2023/08/27 07:40:03;;;;;;;3.20;1.40;;;15.50;99.90;;;16.49;100.00;97514.66;5075681;28;20455;-77
2023/08/27 07:42:33;;;;;;;1.30;1.20;;;15.50;99.90;;;16.53;100.00;97509.72;5071684;28;21052;-77
2023/08/27 07:45:03;;;;;;;2.97;1.40;;;15.60;99.90;;;16.58;100.00;97517.75;5071711;28;20466;-77
2023/08/27 07:47:34;;;;;;;1.60;1.50;;;15.60;99.90;;;16.62;100.00;97518.09;5071801;28;20512;-77
2023/08/27 07:50:05;;;;;;;5.70;1.60;;;15.70;99.90;;;16.65;100.00;97513.13;5072047;28;20468;-76
2023/08/27 07:52:35;;;;;;;2.10;1.40;;;15.80;99.90;;;16.72;100.00;97507.69;5069582;28;20456;-76
2023/08/27 07:55:08;;;;;;;2.40;1.47;;;15.90;99.90;;;16.79;100.00;97521.53;5069572;28;20487;-78
2023/08/27 07:57:38;;;;;;;1.30;1.20;;;15.90;99.90;;;16.84;100.00;97526.88;5071244;28;20496;-78
2023/08/27 08:00:09;;;;;;;4.30;1.77;;;16.10;99.90;;;16.91;100.00;97523.06;5068614;28;20542;-77
2023/08/27 08:02:40;;;;;;;4.43;1.60;;;16.10;99.90;;;16.94;100.00;97511.19;5075367;28;20474;-78
2023/08/27 08:05:10;;;;;;;2.77;1.60;;;16.20;99.90;;;17.00;100.00;97515.53;5076160;28;20459;-78
2023/08/27 08:07:42;;;;;;;3.03;1.70;;;16.30;99.90;;;17.09;100.00;97516.72;5072773;28;20459;-80
2023/08/27 08:10:14;;;;;;;1.40;1.30;;;16.30;99.90;;;17.18;100.00;97517.91;5073835;28;20471;-78
2023/08/27 08:12:44;;;;;;;1.87;1.50;;;16.40;99.90;;;17.24;100.00;97511.69;5072086;28;20481;-78
2023/08/27 08:15:14;;;;;;;3.00;1.63;;;16.40;99.90;;;17.33;100.00;97514.69;5072603;28;20536;-79
2023/08/27 08:17:44;;;;;;;3.10;1.57;;;16.50;99.90;;;17.41;100.00;97509.81;5072324;28;20487;-78
2023/08/27 08:20:15;;;;;;;2.93;1.60;;;16.70;99.90;;;17.49;100.00;97508.59;5071701;28;20480;-78
2023/08/27 08:22:44;;;;;;;4.23;1.50;;;16.80;99.90;;;17.58;100.00;97513.25;5071538;28;20474;-77
2023/08/27 08:25:15;;;;;;;6.33;2.23;;;16.80;99.90;;;17.69;100.00;97523.97;5073734;28;20470;-78
2023/08/27 08:27:44;;;;;;;6.63;1.70;;;17.00;99.90;;;17.77;100.00;97526.97;5072141;28;20467;-79
2023/08/27 08:30:13;;;;;;;2.90;1.70;;;17.10;99.90;;;17.87;100.00;97536.88;5070611;28;20464;-78
2023/08/27 08:32:43;;;;;;;3.77;2.17;;;17.10;99.90;;;17.96;100.00;97541.50;5069888;28;20485;-78
2023/08/27 08:35:14;;;;;;;12.23;6.07;;;17.20;99.90;;;18.08;100.00;97546.69;5070691;28;20464;-76
2023/08/27 08:37:44;;;;;;;2.30;1.73;;;17.30;99.90;;;18.18;100.00;97544.16;5072688;28;20475;-78
2023/08/27 08:40:18;;;;;;;7.80;1.90;;;17.40;99.90;;;18.21;100.00;97546.28;5068982;28;20487;-78
2023/08/27 08:42:57;;;;;;;2.80;1.60;;;17.40;99.90;;;18.30;100.00;97547.44;5069622;28;20913;-78
2023/08/27 08:45:43;;;;;;;2.67;1.70;;;17.60;99.90;;;18.42;100.00;97539.38;5071886;28;20835;-78
2023/08/27 08:48:14;;;;;;;2.80;2.03;;;17.70;99.90;;;18.47;100.00;97542.06;5069872;28;20912;-79
2023/08/27 08:50:43;;;;;;;4.80;1.57;;;17.80;99.90;;;18.56;100.00;97533.47;5071384;28;20467;-79
2023/08/27 08:53:15;;;;;;;4.17;1.87;;;17.90;99.90;;;18.65;100.00;97540.94;5072433;28;20475;-79
2023/08/27 08:55:51;;;;;;;3.20;1.90;;;18.00;99.90;;;18.72;100.00;97539.69;5069801;28;20480;-78
2023/08/27 08:58:23;;;;;;;7.03;1.70;;;18.10;99.90;;;18.77;100.00;97539.75;5071736;28;20455;-78
2023/08/27 09:00:53;;;;;;;3.27;1.60;;;18.10;99.90;;;18.84;100.00;97548.28;5071140;28;20495;-78
2023/08/27 09:03:27;;;;;;;2.97;1.50;;;18.10;99.90;;;18.92;100.00;97537.22;5070302;28;20968;-77
2023/08/27 09:05:59;;;;;;;1.97;1.77;;;18.20;99.90;;;19.01;100.00;97532.25;5070226;28;20451;-78
2023/08/27 09:08:31;;;;;;;3.37;1.70;;;18.30;99.90;;;19.04;100.00;97537.03;5070574;28;20479;-78
2023/08/27 09:11:02;;;;;;;8.33;1.83;;;18.30;99.90;;;19.10;100.00;97542.13;5070939;28;20550;-78
2023/08/27 09:13:33;;;;;;;8.53;2.10;;;18.40;99.90;;;19.16;100.00;97531.59;5070953;28;20468;-78
2023/08/27 09:16:04;;;;;;;3.00;1.60;;;18.40;99.90;;;19.19;100.00;97523.91;5069004;28;20472;-78
2023/08/27 09:18:34;;;;;;;2.23;1.73;;;18.50;99.90;;;19.22;100.00;97523.41;5070858;28;20470;-78
2023/08/27 09:21:04;;;;;;;9.93;5.67;;;18.50;99.90;;;19.22;100.00;97523.41;5070590;28;20854;-82
2023/08/27 09:23:37;;;;;;;5.77;2.10;;;18.60;99.90;;;19.27;100.00;97517.31;5071857;28;20961;-78
2023/08/27 09:26:08;;;;;;;3.63;1.47;;;18.60;99.90;;;19.28;100.00;97514.44;5069747;28;21254;-78
2023/08/27 09:28:38;;;;;;;1.83;1.40;;;18.50;99.90;;;19.34;100.00;97516.03;5072641;28;20498;-78
2023/08/27 09:31:10;;;;;;;3.90;1.60;;;18.60;99.90;;;19.39;100.00;97509.97;5069035;28;20490;-78
2023/08/27 09:33:43;;;;;;;2.90;1.30;;;18.60;99.90;;;19.44;100.00;97508.19;5071589;28;20972;-79
2023/08/27 09:36:17;;;;;;;3.37;1.67;;;18.70;99.90;;;19.47;100.00;97501.59;5074079;28;21048;-78
2023/08/27 09:38:49;;;;;;;2.43;1.60;;;18.70;99.90;;;19.51;100.00;97503.44;5072739;28;20471;-78
2023/08/27 09:41:21;;;;;;;4.90;1.40;;;18.90;99.90;;;19.53;100.00;97497.91;5069292;28;20480;-78
2023/08/27 09:43:53;;;;;;;3.47;1.83;;;18.90;99.90;;;19.48;100.00;97506.63;5067555;28;20467;-79
2023/08/27 09:46:24;;;;;;;4.07;1.93;;;18.70;99.90;;;19.51;100.00;97500.78;5070077;28;20602;-78
2023/08/27 09:49:06;;;;;;;2.40;1.77;;;18.80;99.90;;;19.48;100.00;97500.50;5069785;28;21002;-78
2023/08/27 09:51:38;;;;;;;3.13;1.50;;;18.70;99.90;;;19.51;100.00;97500.78;5073019;28;20464;-78
2023/08/27 09:54:16;;;;;;;1.60;1.40;;;18.70;99.90;;;19.48;100.00;97500.50;5070610;28;20460;-77
2023/08/27 09:56:50;;;;;;;5.20;1.47;;;18.70;99.90;;;19.51;100.00;97500.78;5072682;28;20460;-78
2023/08/27 09:59:21;;;;;;;2.07;1.67;;;18.70;99.90;;;19.57;100.00;97497.13;5073945;28;20505;-79
2023/08/27 10:01:52;;;;;;;16.93;8.50;;;18.80;99.90;;;19.54;100.00;97494.97;5071500;28;20495;-80
2023/08/27 10:04:23;;;;;;;2.80;1.70;;;18.70;99.90;;;19.56;100.00;97495.53;5070814;28;20468;-79
2023/08/27 10:06:53;;;;;;;5.73;1.83;;;18.70;99.90;;;19.60;100.00;97501.13;5074727;28;20460;-79
2023/08/27 10:09:22;;;;;;;1.70;1.50;;;18.80;99.90;;;19.66;100.00;97500.06;5075069;28;20502;-78
2023/08/27 10:11:53;;;;;;;3.30;2.20;;;18.90;99.90;;;19.69;100.00;97502.22;5077146;28;20473;-78
2023/08/27 10:14:23;;;;;;;3.27;1.50;;;18.90;99.90;;;19.68;100.00;97499.84;5070925;28;20486;-78
2023/08/27 10:16:52;;;;;;;2.57;1.50;;;18.90;99.90;;;19.68;100.00;97500.59;5073376;28;20486;-78
2023/08/27 10:19:22;;;;;;;8.10;5.90;;;18.80;99.90;;;19.66;100.00;97501.94;5071838;28;22333;-77
2023/08/27 10:21:53;;;;;;;2.50;1.50;;;18.70;99.90;;;19.69;100.00;97496.09;5073247;28;20524;-78
2023/08/27 10:24:23;;;;;;;1.73;1.50;;;18.80;99.90;;;19.75;100.00;97492.44;5073890;28;20462;-77
2023/08/27 10:26:57;;;;;;;6.47;3.03;;;18.90;99.90;;;19.74;100.00;97501.44;5074024;28;20543;-78
2023/08/27 10:29:28;;;;;;;9.73;5.20;;;19.00;99.90;;;19.71;100.00;97496.66;5073440;28;20490;-81